Decoded Metar for WIII (JAKARTA in INDONESIA) (IATA:CGK) | Meteo·Mobile Aviation Weather
aviador You're here:

WIII Decoded Metar

JAKARTA in INDONESIA
Report Time2019-07-24 04:00:00
UTC Time2019-07-24 04:17:38
Flight Rules vfr VFR
WindVRB at 03 kt
Visibility8000 m
Phenomena:N/A
Clouds:Few 020 Hf
Expected CloudBase > 5,200 ft AGL from Temp-Dew spread
CeilingNone
Temp31°C (ISA +16)
Dew Point18°C (46% RH)
Heat Index31.9°C
QNH1012 hPa
Density Alt2,169 ft
Elevation26 ft
Report Wrong Elevation
Raw Report
WIII 240400Z VRB03KT 8000 FEW020 31/18 Q1012 NOSIG=

Extra information for WIII:More info

Metar Taf Metar & Taf Last 4 Metars F.Rules Stats Wind Profile Meteogram Temp Stats Airport Information Weather charts Add Link Nearby VenuesMetar ALERT Operation Metar Decoded Social comments